Time;durP1;ratioP1;P1;durP2;ratioP2;P2;SDS_P1;SDS_P2;PMS_P1;PMS_P2;Temp;Humidity;BMP_temperature;BMP_pressure;BME280_temperature;BME280_humidity;BME280_pressure;Samples;Min_cycle;Max_cycle;Signal;HPM_P1;HPM_P2
2023/09/17 00:02:23;;;;;;;7.17;6.47;;;20.80;99.90;;;;;;5069757;28;20228;-36
2023/09/17 00:04:50;;;;;;;6.70;6.10;;;20.80;1.00;;;;;;5073465;28;20275;-38
2023/09/17 00:07:17;;;;;;;6.33;5.83;;;20.80;1.00;;;;;;5049818;28;20189;-37
2023/09/17 00:09:42;;;;;;;6.37;5.77;;;20.80;1.00;;;;;;5055861;28;20651;-37
2023/09/17 00:12:09;;;;;;;6.00;5.50;;;20.70;1.00;;;;;;5074613;28;20181;-39
2023/09/17 00:14:35;;;;;;;5.90;5.40;;;20.70;21.40;;;;;;5074765;28;20330;-37
2023/09/17 00:17:01;;;;;;;7.10;5.53;;;20.60;99.90;;;;;;5056791;28;20526;-38
2023/09/17 00:19:27;;;;;;;6.80;6.20;;;20.60;99.90;;;;;;5074452;28;20486;-37
2023/09/17 00:21:52;;;;;;;5.73;5.33;;;20.60;1.00;;;;;;5075023;28;20200;-36
2023/09/17 00:24:18;;;;;;;6.50;6.00;;;20.60;1.00;;;;;;5056353;28;20221;-37
2023/09/17 00:26:43;;;;;;;6.67;6.10;;;20.50;37.30;;;;;;5074409;28;20185;-40
2023/09/17 00:29:09;;;;;;;6.87;6.27;;;20.50;99.90;;;;;;5073902;28;20582;-37
2023/09/17 00:31:35;;;;;;;7.50;6.80;;;20.40;99.90;;;;;;5074939;28;20188;-38
2023/09/17 00:34:01;;;;;;;9.10;5.87;;;20.30;1.00;;;;;;5073499;28;20189;-38
2023/09/17 00:36:26;;;;;;;6.43;5.83;;;20.30;1.00;;;;;;5073836;28;20180;-37
2023/09/17 00:38:52;;;;;;;5.90;5.40;;;20.30;1.00;;;;;;5072747;28;20189;-37
2023/09/17 00:41:17;;;;;;;7.03;6.43;;;20.20;21.90;;;;;;5072487;28;20216;-39
2023/09/17 00:43:43;;;;;;;6.73;6.03;;;20.10;99.90;;;;;;5073142;28;20189;-37
2023/09/17 00:46:09;;;;;;;6.77;6.17;;;20.20;99.90;;;;;;5073622;28;20185;-37
2023/09/17 00:48:34;;;;;;;6.70;6.17;;;20.10;99.90;;;;;;5074227;28;20267;-36
2023/09/17 00:51:00;;;;;;;6.73;6.13;;;20.00;99.90;;;;;;5074037;28;20478;-38
2023/09/17 00:53:26;;;;;;;6.70;6.13;;;19.90;1.00;;;;;;5057530;28;20587;-38
2023/09/17 00:55:52;;;;;;;6.83;6.23;;;19.90;1.00;;;;;;5075111;28;20530;-38
2023/09/17 00:58:17;;;;;;;5.93;5.53;;;19.80;1.00;;;;;;5056750;28;20423;-38
2023/09/17 01:00:44;;;;;;;6.47;5.90;;;19.80;1.00;;;;;;5075930;28;20197;-38
2023/09/17 01:03:12;;;;;;;7.87;7.17;;;19.80;75.50;;;;;;5074491;28;20173;-37
2023/09/17 01:05:42;;;;;;;6.13;5.53;;;19.70;99.90;;;;;;5074319;28;20486;-39
2023/09/17 01:08:09;;;;;;;6.70;6.10;;;19.70;99.90;;;;;;5075094;28;20455;-36
2023/09/17 01:10:40;;;;;;;7.03;6.43;;;19.70;99.90;;;;;;5075191;28;20490;-37
2023/09/17 01:13:06;;;;;;;7.23;6.40;;;19.60;99.90;;;;;;5075973;28;20419;-38
2023/09/17 01:15:34;;;;;;;6.70;6.20;;;19.60;99.90;;;;;;5075781;28;20415;-36
2023/09/17 01:18:05;;;;;;;6.87;6.27;;;19.60;99.90;;;;;;5076015;28;20858;-38
2023/09/17 01:20:50;;;;;;;6.93;6.43;;;19.60;99.90;;;;;;5075843;28;20821;-37
2023/09/17 01:23:26;;;;;;;7.73;7.03;;;19.60;99.90;;;;;;5059614;28;20837;-36
2023/09/17 01:26:05;;;;;;;6.97;6.37;;;19.60;1.00;;;;;;5076083;28;20553;-39
2023/09/17 01:28:31;;;;;;;7.37;6.77;;;19.60;1.00;;;;;;5058884;28;20423;-36
2023/09/17 01:30:57;;;;;;;7.23;6.63;;;19.50;1.00;;;;;;5076213;28;20420;-39
2023/09/17 01:33:23;;;;;;;8.17;7.47;;;19.50;1.00;;;;;;5075445;28;20425;-37
2023/09/17 01:35:59;;;;;;;7.37;6.77;;;19.50;1.00;;;;;;5076138;28;20195;-37
2023/09/17 01:38:32;;;;;;;8.07;7.37;;;19.50;4.20;;;;;;5074952;28;20189;-38
2023/09/17 01:41:00;;;;;;;8.47;7.77;;;19.50;65.10;;;;;;5057494;28;20502;-36
2023/09/17 01:43:25;;;;;;;8.80;8.10;;;19.50;95.50;;;;;;5074028;28;20825;-36
2023/09/17 01:45:52;;;;;;;7.90;7.20;;;19.50;99.90;;;;;;5057524;28;20483;-37
2023/09/17 01:48:18;;;;;;;7.37;6.77;;;19.50;99.90;;;;;;5057932;28;20216;-36
2023/09/17 01:50:45;;;;;;;7.60;7.00;;;19.50;99.90;;;;;;5054318;28;20495;-36
2023/09/17 01:53:13;;;;;;;8.70;7.90;;;19.50;99.90;;;;;;5054783;28;20539;-36
2023/09/17 01:55:41;;;;;;;8.47;7.70;;;19.60;99.90;;;;;;5054707;28;20428;-39
2023/09/17 01:58:09;;;;;;;8.33;7.53;;;19.50;99.90;;;;;;5055768;28;20432;-36
2023/09/17 02:00:35;;;;;;;7.33;6.77;;;19.50;99.90;;;;;;5058893;28;20404;-37
2023/09/17 02:03:02;;;;;;;10.27;7.40;;;19.50;99.90;;;;;;5058185;28;20702;-37
2023/09/17 02:05:28;;;;;;;7.80;7.20;;;19.50;99.90;;;;;;5056365;28;20209;-38
2023/09/17 02:07:54;;;;;;;8.23;7.50;;;19.40;99.90;;;;;;5056578;28;20424;-36
2023/09/17 02:10:20;;;;;;;8.50;7.80;;;19.40;99.90;;;;;;5056363;28;20188;-37
2023/09/17 02:12:46;;;;;;;8.60;7.80;;;19.40;99.90;;;;;;5057045;28;20184;-37
2023/09/17 02:15:12;;;;;;;8.10;7.50;;;19.40;99.90;;;;;;5056727;28;20778;-36
2023/09/17 02:17:38;;;;;;;9.37;8.50;;;19.40;99.90;;;;;;5057372;28;20432;-37
2023/09/17 02:20:08;;;;;;;9.53;8.47;;;19.40;1.00;;;;;;5057826;28;20677;-37
2023/09/17 02:22:34;;;;;;;8.90;8.20;;;19.40;1.00;;;;;;5058773;28;20516;-37
2023/09/17 02:24:59;;;;;;;9.30;8.50;;;19.40;1.00;;;;;;5059662;28;20467;-38
2023/09/17 02:27:25;;;;;;;9.30;8.40;;;19.50;1.00;;;;;;5058655;28;20652;-36
2023/09/17 02:29:51;;;;;;;8.90;8.20;;;19.40;1.00;;;;;;5058679;28;20239;-39
2023/09/17 02:32:16;;;;;;;8.23;7.63;;;19.40;1.00;;;;;;5056989;28;20201;-37
2023/09/17 02:34:42;;;;;;;9.67;8.80;;;19.40;1.00;;;;;;5038384;28;20268;-37
2023/09/17 02:37:08;;;;;;;8.03;7.33;;;19.30;1.00;;;;;;5057928;28;20201;-37
2023/09/17 02:39:35;;;;;;;8.93;8.10;;;19.30;1.00;;;;;;5058612;28;20189;-38
2023/09/17 02:42:01;;;;;;;9.67;8.77;;;19.20;1.00;;;;;;5057076;28;20166;-41
2023/09/17 02:44:26;;;;;;;8.07;7.30;;;19.20;1.00;;;;;;5057415;28;20722;-36
2023/09/17 02:47:29;;;;;;;8.30;7.50;;;19.10;1.00;;;;;;5058766;28;20258;-37
2023/09/17 02:49:54;;;;;;;9.00;8.30;;;19.00;1.00;;;;;;5061404;28;20225;-38
2023/09/17 02:52:20;;;;;;;8.87;8.17;;;19.00;1.00;;;;;;5076362;28;20464;-37
2023/09/17 02:54:46;;;;;;;8.13;7.50;;;18.90;1.00;;;;;;5058532;28;20275;-38
2023/09/17 02:57:11;;;;;;;8.10;7.40;;;18.90;1.00;;;;;;5076982;28;20254;-36
2023/09/17 02:59:37;;;;;;;8.63;7.90;;;18.80;1.00;;;;;;5076853;28;20444;-37
2023/09/17 03:02:03;;;;;;;8.37;7.67;;;18.70;1.00;;;;;;5077245;28;20262;-37
2023/09/17 03:04:29;;;;;;;9.07;8.30;;;18.70;1.00;;;;;;5059885;28;20221;-37
2023/09/17 03:06:55;;;;;;;9.00;8.20;;;18.60;1.00;;;;;;5077881;28;20446;-39
2023/09/17 03:09:20;;;;;;;8.80;8.10;;;18.60;1.00;;;;;;5076173;28;20567;-38
2023/09/17 03:11:46;;;;;;;8.70;8.00;;;18.60;1.00;;;;;;5078292;28;20193;-40
2023/09/17 03:14:12;;;;;;;9.80;8.90;;;18.60;1.00;;;;;;5076586;28;20212;-35
2023/09/17 03:16:37;;;;;;;9.43;8.53;;;18.60;1.00;;;;;;5077967;28;20189;-38
2023/09/17 03:19:03;;;;;;;8.90;8.10;;;18.60;1.00;;;;;;5076959;28;20189;-36
2023/09/17 03:21:29;;;;;;;8.53;7.83;;;18.60;1.00;;;;;;5075442;28;20185;-36
2023/09/17 03:23:54;;;;;;;10.10;9.30;;;18.60;1.00;;;;;;5077370;28;20269;-36
2023/09/17 03:26:22;;;;;;;9.23;8.53;;;18.50;1.00;;;;;;5077026;28;20644;-37
2023/09/17 03:28:47;;;;;;;8.93;8.20;;;18.50;1.00;;;;;;5076328;28;20236;-36
2023/09/17 03:31:13;;;;;;;9.07;8.37;;;18.50;5.00;;;;;;5076140;28;20435;-37
2023/09/17 03:33:38;;;;;;;10.10;9.20;;;18.50;13.40;;;;;;5075953;28;20189;-36
2023/09/17 03:36:04;;;;;;;9.00;8.30;;;18.50;27.20;;;;;;5076989;28;20192;-37
2023/09/17 03:38:30;;;;;;;9.57;8.77;;;18.50;38.10;;;;;;5077297;28;20283;-36
2023/09/17 03:40:59;;;;;;;10.20;9.30;;;18.50;58.90;;;;;;5074709;28;20184;-37
2023/09/17 03:43:27;;;;;;;9.33;8.53;;;18.50;71.20;;;;;;5075292;28;20173;-37
2023/09/17 03:45:53;;;;;;;9.03;8.33;;;18.50;92.80;;;;;;5075887;28;20873;-34
2023/09/17 03:48:20;;;;;;;10.43;9.53;;;18.50;99.90;;;;;;5076647;28;20473;-36
2023/09/17 03:50:46;;;;;;;9.30;8.60;;;18.50;99.90;;;;;;5077471;28;20241;-36
2023/09/17 03:53:12;;;;;;;10.40;9.57;;;18.50;99.90;;;;;;5059782;28;20710;-37
2023/09/17 03:55:39;;;;;;;10.60;9.70;;;18.50;99.90;;;;;;5077617;28;20254;-37
2023/09/17 03:58:04;;;;;;;9.70;8.90;;;18.50;99.90;;;;;;5059869;28;20800;-38
2023/09/17 04:00:30;;;;;;;10.80;9.80;;;18.50;99.90;;;;;;5077092;28;20463;-37
2023/09/17 04:02:55;;;;;;;9.70;8.90;;;18.40;99.90;;;;;;5077221;28;20559;-42
2023/09/17 04:05:21;;;;;;;10.43;9.53;;;18.50;99.90;;;;;;5077190;28;20212;-38
2023/09/17 04:07:47;;;;;;;10.23;9.33;;;18.50;99.90;;;;;;5076823;28;20207;-38
2023/09/17 04:10:14;;;;;;;9.80;9.00;;;18.50;99.90;;;;;;5076239;28;20228;-38
2023/09/17 04:12:41;;;;;;;9.70;8.80;;;18.50;99.90;;;;;;5056569;28;20431;-37
2023/09/17 04:15:12;;;;;;;9.90;9.10;;;18.50;99.90;;;;;;5076732;28;20639;-38
2023/09/17 04:17:39;;;;;;;10.43;9.60;;;18.50;99.90;;;;;;5076402;28;20603;-39
2023/09/17 04:20:10;;;;;;;11.20;10.20;;;18.50;99.90;;;;;;5076334;28;20832;-41
2023/09/17 04:22:36;;;;;;;9.97;9.17;;;18.40;99.90;;;;;;5075484;28;20415;-38
2023/09/17 04:25:02;;;;;;;10.60;9.70;;;18.40;99.90;;;;;;5075324;28;20508;-40
2023/09/17 04:27:28;;;;;;;11.00;10.10;;;18.40;99.90;;;;;;5075819;28;20759;-40
2023/09/17 04:29:54;;;;;;;10.57;9.67;;;18.40;99.90;;;;;;5075895;28;20431;-38
2023/09/17 04:32:20;;;;;;;11.63;10.63;;;18.40;99.90;;;;;;5074553;28;20426;-40
2023/09/17 04:34:45;;;;;;;10.90;10.00;;;18.40;99.90;;;;;;5075441;28;20205;-38
2023/09/17 04:37:11;;;;;;;11.60;10.23;;;18.40;99.90;;;;;;5076269;28;20181;-38
2023/09/17 04:39:36;;;;;;;10.27;9.40;;;18.30;99.70;;;;;;5075983;28;20196;-40
2023/09/17 04:42:02;;;;;;;10.10;9.30;;;18.30;99.90;;;;;;5074894;28;20652;-38
2023/09/17 04:44:28;;;;;;;10.60;9.70;;;18.30;99.90;;;;;;5074957;28;20220;-40
2023/09/17 04:46:54;;;;;;;11.20;10.20;;;18.30;99.90;;;;;;5075081;28;20181;-40
2023/09/17 04:49:20;;;;;;;10.03;9.23;;;18.30;99.90;;;;;;5076401;28;20415;-39
2023/09/17 04:51:45;;;;;;;10.53;9.60;;;18.30;99.90;;;;;;5076079;28;20467;-39
2023/09/17 04:54:11;;;;;;;10.17;9.27;;;18.30;99.90;;;;;;5058786;28;20189;-39
2023/09/17 04:56:37;;;;;;;9.47;8.60;;;18.30;99.90;;;;;;5075211;28;20215;-40
2023/09/17 04:59:03;;;;;;;10.87;9.93;;;18.30;99.90;;;;;;5075952;28;20581;-40
2023/09/17 05:01:29;;;;;;;9.53;8.83;;;18.30;99.90;;;;;;5075005;28;20730;-40
2023/09/17 05:03:55;;;;;;;8.57;7.87;;;18.40;99.90;;;;;;5074674;28;20427;-39
2023/09/17 05:06:20;;;;;;;9.10;8.30;;;18.40;99.90;;;;;;5074543;28;20208;-39
2023/09/17 05:08:46;;;;;;;10.90;9.40;;;18.40;99.90;;;;;;5074505;28;20276;-38
2023/09/17 05:11:12;;;;;;;11.10;10.20;;;18.50;99.90;;;;;;5056386;28;20185;-40
2023/09/17 05:13:37;;;;;;;11.17;10.10;;;18.50;95.30;;;;;;5073196;28;20458;-38
2023/09/17 05:16:04;;;;;;;9.60;8.83;;;18.40;77.80;;;;;;5073909;28;20192;-39
2023/09/17 05:18:29;;;;;;;9.53;8.70;;;18.40;98.20;;;;;;5074149;28;20181;-39
2023/09/17 05:20:55;;;;;;;9.60;8.80;;;18.40;99.90;;;;;;5073458;28;20533;-41
2023/09/17 05:23:21;;;;;;;9.93;9.03;;;18.40;99.90;;;;;;5073957;28;20312;-38
2023/09/17 05:25:47;;;;;;;9.90;9.10;;;18.40;99.90;;;;;;5073009;28;20217;-39
2023/09/17 05:28:12;;;;;;;10.70;9.63;;;18.50;99.90;;;;;;5074266;28;20473;-37
2023/09/17 05:30:38;;;;;;;10.40;9.50;;;18.50;99.90;;;;;;5074587;28;20244;-40
2023/09/17 05:33:04;;;;;;;9.70;8.90;;;18.60;99.90;;;;;;5075575;28;20189;-39
2023/09/17 05:35:30;;;;;;;10.33;9.43;;;18.60;99.90;;;;;;5077440;28;20195;-39
2023/09/17 05:37:57;;;;;;;9.63;8.67;;;18.70;91.20;;;;;;5078213;28;20423;-39
2023/09/17 05:40:22;;;;;;;9.70;8.90;;;18.70;74.90;;;;;;5078978;28;20935;-43
2023/09/17 05:42:48;;;;;;;10.20;9.30;;;18.80;57.60;;;;;;5079318;28;20481;-39
2023/09/17 05:45:14;;;;;;;9.20;8.30;;;18.80;44.40;;;;;;5078836;28;20226;-41
2023/09/17 05:47:42;;;;;;;10.33;9.40;;;18.90;50.50;;;;;;5076819;28;20458;-39
2023/09/17 05:50:09;;;;;;;10.07;9.27;;;18.90;37.10;;;;;;5078551;28;20240;-38
2023/09/17 05:52:35;;;;;;;9.97;9.17;;;19.00;21.60;;;;;;5060755;28;20415;-38
2023/09/17 05:55:03;;;;;;;9.00;8.30;;;19.10;1.00;;;;;;5078743;28;20403;-39
2023/09/17 05:57:29;;;;;;;9.03;8.13;;;19.20;1.00;;;;;;5079264;28;20551;-38
2023/09/17 05:59:55;;;;;;;9.33;8.53;;;19.30;1.00;;;;;;5062113;28;20457;-39
2023/09/17 06:02:20;;;;;;;8.33;7.67;;;19.40;1.00;;;;;;5077976;28;20847;-46
2023/09/17 06:04:51;;;;;;;8.70;7.90;;;19.50;1.00;;;;;;5077659;28;20251;-40
2023/09/17 06:07:16;;;;;;;9.10;8.20;;;19.50;1.00;;;;;;5077147;28;20174;-39
2023/09/17 06:09:42;;;;;;;8.30;7.60;;;19.50;1.00;;;;;;5076568;28;20434;-40
2023/09/17 06:12:09;;;;;;;8.90;8.20;;;19.60;1.00;;;;;;5078449;28;20200;-43
2023/09/17 06:14:36;;;;;;;8.67;7.97;;;19.70;1.00;;;;;;5060259;28;20203;-39
2023/09/17 06:17:01;;;;;;;10.10;9.20;;;19.90;1.00;;;;;;5078455;28;20756;-41
2023/09/17 06:19:29;;;;;;;9.57;8.70;;;20.10;99.90;;;;;;5078495;28;20415;-40
2023/09/17 06:21:54;;;;;;;9.20;8.37;;;20.20;99.90;;;;;;5076498;28;20539;-41
2023/09/17 06:24:20;;;;;;;9.33;8.53;;;20.30;99.90;;;;;;5076890;28;20463;-43
2023/09/17 06:26:46;;;;;;;9.50;8.73;;;20.30;99.90;;;;;;5075775;28;20284;-40
2023/09/17 06:29:11;;;;;;;9.43;8.63;;;20.40;99.90;;;;;;5075901;28;20177;-41
2023/09/17 06:31:37;;;;;;;8.60;7.97;;;20.60;99.90;;;;;;5077022;28;20209;-40
2023/09/17 06:34:03;;;;;;;9.27;8.47;;;20.70;99.90;;;;;;5076018;28;20591;-40
2023/09/17 06:36:29;;;;;;;9.30;8.50;;;20.80;1.00;;;;;;5058126;28;20203;-39
2023/09/17 06:38:56;;;;;;;9.53;8.50;;;20.90;1.00;;;;;;5076789;28;20184;-40
2023/09/17 06:41:21;;;;;;;8.67;7.97;;;20.90;99.90;;;;;;5060609;28;20435;-40
2023/09/17 06:43:48;;;;;;;8.93;8.23;;;20.90;99.90;;;;;;5077895;28;20677;-44
2023/09/17 06:46:14;;;;;;;8.90;8.20;;;21.00;61.80;;;;;;5072278;28;20199;-41
2023/09/17 06:48:39;;;;;;;7.70;7.10;;;21.10;1.00;;;;;;5046206;28;20432;-39
2023/09/17 06:51:05;;;;;;;8.23;7.43;;;21.20;99.90;;;;;;5076430;28;20225;-39
2023/09/17 06:53:31;;;;;;;8.00;7.30;;;21.30;99.90;;;;;;5075828;28;20178;-41
2023/09/17 06:55:58;;;;;;;9.43;6.60;;;21.40;1.00;;;;;;5075987;28;20809;-39
2023/09/17 06:58:24;;;;;;;8.73;7.00;;;21.50;99.90;;;;;;5058329;28;20419;-39
2023/09/17 07:00:49;;;;;;;6.90;6.30;;;21.60;1.00;;;;;;5074801;28;20698;-39
2023/09/17 07:03:15;;;;;;;7.10;6.40;;;21.70;1.00;;;;;;5075463;28;20263;-39
2023/09/17 07:05:41;;;;;;;7.60;6.90;;;21.80;1.00;;;;;;5074456;28;20381;-43
2023/09/17 07:08:06;;;;;;;6.37;5.87;;;21.90;99.90;;;;;;5056512;28;20200;-40
2023/09/17 07:10:32;;;;;;;6.60;6.00;;;22.00;1.00;;;;;;5075953;28;20419;-40
2023/09/17 07:12:58;;;;;;;6.50;5.87;;;22.00;99.90;;;;;;5058429;28;20177;-42
2023/09/17 07:15:25;;;;;;;6.07;5.03;;;22.00;1.00;;;;;;5075502;28;20435;-42
2023/09/17 07:17:52;;;;;;;5.13;4.73;;;22.00;1.00;;;;;;5074981;28;20432;-40
2023/09/17 07:20:19;;;;;;;5.30;4.80;;;22.00;99.90;;;;;;5073930;28;20411;-39
2023/09/17 07:22:46;;;;;;;5.57;5.17;;;21.90;99.90;;;;;;5072978;28;20424;-41
2023/09/17 07:25:12;;;;;;;5.43;4.97;;;22.00;99.90;;;;;;5056916;28;20637;-41
2023/09/17 07:27:38;;;;;;;6.10;4.90;;;22.20;99.90;;;;;;5065900;28;20534;-40
2023/09/17 07:30:05;;;;;;;5.47;5.03;;;22.40;38.00;;;;;;5049372;28;20231;-38
2023/09/17 07:32:31;;;;;;;5.40;5.00;;;22.50;1.00;;;;;;5073598;28;20442;-40
2023/09/17 07:34:57;;;;;;;5.83;5.23;;;22.70;1.00;;;;;;5055774;28;20842;-40
2023/09/17 07:37:23;;;;;;;5.70;5.20;;;22.80;1.00;;;;;;5074199;28;20447;-41
2023/09/17 07:40:09;;;;;;;5.90;5.30;;;22.70;1.00;;;;;;5074509;28;20816;-39
2023/09/17 07:42:37;;;;;;;6.17;4.43;;;22.90;1.00;;;;;;5072753;28;20859;-40
2023/09/17 07:45:03;;;;;;;6.27;4.97;;;23.20;1.00;;;;;;5071333;28;20536;-38
2023/09/17 07:47:30;;;;;;;6.80;4.67;;;23.60;99.90;;;;;;5072153;28;20495;-39
2023/09/17 07:49:56;;;;;;;7.07;4.93;;;24.00;99.90;;;;;;5055260;28;20459;-43
2023/09/17 07:52:22;;;;;;;5.23;4.73;;;24.20;99.90;;;;;;5072355;28;20435;-40
2023/09/17 07:54:48;;;;;;;6.47;4.70;;;24.30;99.90;;;;;;5073242;28;20717;-40
2023/09/17 07:57:14;;;;;;;5.47;4.47;;;24.60;99.90;;;;;;5072741;28;20308;-39
2023/09/17 07:59:39;;;;;;;5.40;4.87;;;24.80;99.90;;;;;;5073853;28;20219;-38
2023/09/17 08:02:05;;;;;;;5.63;4.37;;;25.00;99.90;;;;;;5075448;28;20415;-39
2023/09/17 08:04:31;;;;;;;4.67;4.30;;;25.10;95.90;;;;;;5075562;28;20607;-39
2023/09/17 08:06:57;;;;;;;5.40;4.90;;;25.30;57.70;;;;;;5075184;28;20591;-43
2023/09/17 08:09:23;;;;;;;5.50;4.67;;;25.50;46.60;;;;;;5074761;28;20432;-41
2023/09/17 08:11:49;;;;;;;7.40;4.87;;;25.70;18.60;;;;;;5063665;28;20244;-38
2023/09/17 08:14:15;;;;;;;4.70;4.30;;;25.60;14.20;;;;;;5054929;28;20477;-39
2023/09/17 08:16:41;;;;;;;5.43;4.93;;;25.50;10.50;;;;;;5053766;28;20445;-39
2023/09/17 08:19:06;;;;;;;5.83;5.33;;;25.30;14.00;;;;;;5054979;28;20600;-42
2023/09/17 08:21:32;;;;;;;5.90;4.43;;;25.20;16.80;;;;;;5055360;28;20280;-40
2023/09/17 08:23:58;;;;;;;4.87;4.47;;;25.20;15.50;;;;;;5056133;28;20235;-41
2023/09/17 08:26:27;;;;;;;5.60;5.00;;;25.00;17.60;;;;;;5071096;28;20525;-40
2023/09/17 08:28:55;;;;;;;7.43;6.20;;;25.10;20.10;;;;;;5057225;28;20732;-41
2023/09/17 08:31:25;;;;;;;7.50;5.50;;;25.00;14.20;;;;;;5074063;28;20451;-40
2023/09/17 08:33:51;;;;;;;5.83;4.80;;;25.00;10.30;;;;;;5073665;28;20450;-41
2023/09/17 08:36:21;;;;;;;5.30;4.80;;;24.90;9.10;;;;;;5072989;28;20424;-38
2023/09/17 08:38:49;;;;;;;7.60;5.13;;;24.90;4.30;;;;;;5073702;28;20820;-38
2023/09/17 08:41:18;;;;;;;7.10;5.00;;;24.90;2.90;;;;;;5074396;28;20408;-40
2023/09/17 08:43:45;;;;;;;6.50;5.63;;;24.90;5.90;;;;;;5074254;28;20423;-38
2023/09/17 08:46:12;;;;;;;6.53;4.67;;;24.90;5.90;;;;;;5071963;28;20468;-38
2023/09/17 08:48:37;;;;;;;6.03;4.63;;;24.90;7.30;;;;;;5054461;28;20503;-40
2023/09/17 08:51:04;;;;;;;4.60;4.20;;;25.10;6.60;;;;;;5055262;28;20590;-40
2023/09/17 08:53:34;;;;;;;6.00;4.23;;;25.10;4.00;;;;;;5054024;28;20251;-39
2023/09/17 08:56:00;;;;;;;5.13;4.63;;;25.20;5.00;;;;;;5055193;28;20916;-39
2023/09/17 08:58:32;;;;;;;5.83;5.20;;;25.30;1.00;;;;;;5072841;28;20463;-42
2023/09/17 09:00:59;;;;;;;6.13;5.00;;;25.50;1.00;;;;;;5072551;28;20200;-38
2023/09/17 09:03:26;;;;;;;4.87;4.10;;;25.80;1.00;;;;;;5071576;28;20533;-38
2023/09/17 09:05:55;;;;;;;5.17;4.30;;;26.20;1.00;;;;;;5072646;28;20726;-39
2023/09/17 09:08:21;;;;;;;4.70;3.53;;;26.60;1.00;;;;;;5074898;28;20415;-37
2023/09/17 09:10:47;;;;;;;7.90;5.00;;;27.10;1.00;;;;;;5078507;28;20426;-37
2023/09/17 09:13:13;;;;;;;6.73;4.50;;;27.50;1.00;;;;;;5078009;28;20431;-39
2023/09/17 09:15:41;;;;;;;10.03;4.97;;;27.70;1.00;;;;;;5078360;28;20192;-39
2023/09/17 09:18:08;;;;;;;9.93;5.17;;;28.00;1.00;;;;;;5075924;28;20457;-38
2023/09/17 09:20:36;;;;;;;7.37;3.70;;;28.20;1.00;;;;;;5062150;28;20504;-39
2023/09/17 09:23:04;;;;;;;7.60;3.50;;;28.50;1.00;;;;;;5057231;28;20705;-37
2023/09/17 09:25:30;;;;;;;6.37;4.40;;;28.70;1.00;;;;;;5057969;28;20762;-36
2023/09/17 09:28:00;;;;;;;5.90;3.83;;;28.90;1.00;;;;;;5057032;28;20442;-37
2023/09/17 09:30:26;;;;;;;5.00;4.03;;;29.10;1.00;;;;;;5056566;28;20192;-38
2023/09/17 09:32:51;;;;;;;6.03;4.40;;;29.40;1.00;;;;;;5056174;28;20440;-37
2023/09/17 09:35:18;;;;;;;6.90;4.03;;;29.70;1.00;;;;;;5044747;28;20749;-39
2023/09/17 09:37:43;;;;;;;4.50;3.90;;;29.80;1.00;;;;;;5040687;28;20763;-39
2023/09/17 09:40:09;;;;;;;5.10;3.60;;;30.00;1.00;;;;;;5057565;28;20481;-37
2023/09/17 09:42:35;;;;;;;3.90;3.50;;;30.20;1.00;;;;;;5065457;28;20186;-37
2023/09/17 09:45:02;;;;;;;3.87;3.57;;;30.10;1.00;;;;;;5057925;28;20460;-37
2023/09/17 09:47:31;;;;;;;5.20;3.93;;;30.30;1.00;;;;;;5077646;28;20419;-37
2023/09/17 09:49:57;;;;;;;3.80;3.13;;;30.50;1.00;;;;;;5072900;28;20476;-38
2023/09/17 09:52:24;;;;;;;4.70;3.20;;;30.40;1.00;;;;;;5077211;28;20512;-37
2023/09/17 09:54:50;;;;;;;5.67;3.60;;;30.10;1.00;;;;;;5059528;28;20189;-36
2023/09/17 09:57:16;;;;;;;7.10;3.70;;;30.00;1.00;;;;;;5077681;28;20496;-36
2023/09/17 09:59:47;;;;;;;4.80;3.93;;;30.30;1.00;;;;;;5041367;28;20431;-37
2023/09/17 10:02:15;;;;;;;5.10;4.10;;;30.80;1.00;;;;;;5078120;28;20416;-38
2023/09/17 10:04:46;;;;;;;5.93;3.53;;;31.10;1.00;;;;;;5042705;28;20483;-38
2023/09/17 10:07:14;;;;;;;6.30;3.63;;;31.20;1.00;;;;;;5059325;28;20980;-39
2023/09/17 10:09:41;;;;;;;3.60;3.23;;;31.20;1.00;;;;;;5057677;28;20478;-42
2023/09/17 10:12:07;;;;;;;4.47;3.37;;;31.50;1.00;;;;;;5077031;28;20462;-38
2023/09/17 10:14:36;;;;;;;5.63;3.30;;;31.50;1.00;;;;;;5060371;28;20460;-39
2023/09/17 10:17:02;;;;;;;4.60;3.17;;;31.40;1.00;;;;;;5077525;28;20184;-38
2023/09/17 10:19:29;;;;;;;6.07;3.30;;;31.40;1.00;;;;;;5057906;28;20498;-40
2023/09/17 10:21:56;;;;;;;4.63;3.40;;;31.70;1.00;;;;;;5059008;28;20432;-41
2023/09/17 10:24:22;;;;;;;6.00;3.00;;;31.80;1.00;;;;;;5058458;28;20468;-39
2023/09/17 10:26:49;;;;;;;4.67;3.60;;;31.90;1.00;;;;;;5076160;28;20402;-39
2023/09/17 10:29:15;;;;;;;7.10;3.67;;;31.80;1.00;;;;;;5075385;28;20418;-38
2023/09/17 10:31:42;;;;;;;7.90;3.30;;;31.70;1.00;;;;;;5057325;28;20406;-39
2023/09/17 10:34:14;;;;;;;6.13;3.27;;;31.80;1.00;;;;;;5055711;28;20572;-39
2023/09/17 10:36:42;;;;;;;7.13;3.47;;;31.70;1.00;;;;;;5075621;28;20427;-39
2023/09/17 10:39:09;;;;;;;4.27;3.00;;;31.50;1.00;;;;;;5075783;28;20417;-38
2023/09/17 10:41:37;;;;;;;3.77;3.37;;;31.50;1.00;;;;;;5058804;28;20444;-39
2023/09/17 10:44:03;;;;;;;5.60;3.00;;;31.40;1.00;;;;;;5075863;28;20458;-39
2023/09/17 10:46:31;;;;;;;4.27;3.03;;;31.50;1.00;;;;;;5057917;28;20515;-39
2023/09/17 10:48:58;;;;;;;3.60;3.30;;;31.50;1.00;;;;;;5076120;28;20439;-39
2023/09/17 10:51:28;;;;;;;6.10;3.10;;;31.70;1.00;;;;;;5076573;28;20475;-38
2023/09/17 10:53:54;;;;;;;3.77;3.20;;;32.00;1.00;;;;;;5076002;28;20408;-39
2023/09/17 10:56:20;;;;;;;4.63;2.57;;;32.20;1.00;;;;;;5057596;28;20412;-40
2023/09/17 10:58:49;;;;;;;3.23;2.90;;;32.00;1.00;;;;;;5058447;28;20509;-39
2023/09/17 11:01:20;;;;;;;3.37;3.07;;;32.30;1.00;;;;;;5075332;28;20443;-40
2023/09/17 11:03:52;;;;;;;6.03;2.80;;;32.60;1.00;;;;;;5058260;28;20435;-39
2023/09/17 11:06:23;;;;;;;4.23;3.60;;;32.80;1.00;;;;;;5075107;28;20479;-40
2023/09/17 11:08:51;;;;;;;4.80;3.00;;;33.40;1.00;;;;;;5058086;28;20938;-40
2023/09/17 11:11:17;;;;;;;4.10;2.80;;;33.80;1.00;;;;;;5057125;28;20427;-39
2023/09/17 11:13:46;;;;;;;3.63;2.87;;;34.00;1.00;;;;;;5059005;28;20413;-38
2023/09/17 11:16:18;;;;;;;4.77;2.97;;;34.00;1.00;;;;;;5058861;28;20684;-40
2023/09/17 11:19:02;;;;;;;6.90;3.37;;;34.20;1.00;;;;;;5076206;28;20650;-41
2023/09/17 11:21:28;;;;;;;4.10;3.20;;;34.10;1.00;;;;;;5058316;28;20984;-40
2023/09/17 11:23:54;;;;;;;5.43;3.00;;;34.00;1.00;;;;;;5056878;28;20433;-42
2023/09/17 11:26:20;;;;;;;3.33;2.97;;;33.80;1.00;;;;;;5057640;28;20217;-38
2023/09/17 11:28:55;;;;;;;3.33;2.83;;;33.40;1.00;;;;;;5053609;28;20213;-40
2023/09/17 11:31:21;;;;;;;6.67;3.20;;;33.00;1.00;;;;;;5063239;28;20414;-40
2023/09/17 11:33:48;;;;;;;8.00;3.77;;;32.90;1.00;;;;;;5073399;28;20465;-38
2023/09/17 11:36:14;;;;;;;4.20;2.40;;;32.70;1.00;;;;;;5053557;28;20501;-39
2023/09/17 11:38:45;;;;;;;4.40;2.70;;;32.80;1.00;;;;;;5053387;28;20485;-39
2023/09/17 11:41:14;;;;;;;4.60;2.90;;;33.10;1.00;;;;;;5059279;28;20432;-39
2023/09/17 11:43:44;;;;;;;7.00;3.50;;;33.60;1.00;;;;;;5074039;28;20413;-38
2023/09/17 11:46:11;;;;;;;4.87;2.57;;;34.30;1.00;;;;;;5073775;28;20880;-39
2023/09/17 11:48:39;;;;;;;5.00;2.87;;;34.30;1.00;;;;;;5073560;28;20410;-41
2023/09/17 11:51:29;;;;;;;5.37;2.80;;;34.20;1.00;;;;;;5052769;28;20443;-40
2023/09/17 11:54:01;;;;;;;5.43;3.30;;;34.50;1.00;;;;;;5054041;28;20406;-40
2023/09/17 11:56:28;;;;;;;4.87;2.70;;;34.60;1.00;;;;;;5056119;28;20441;-39
2023/09/17 11:59:04;;;;;;;5.00;3.03;;;33.90;1.00;;;;;;5053891;28;20416;-40
2023/09/17 12:01:44;;;;;;;3.90;2.70;;;33.10;1.00;;;;;;5049135;28;20427;-39
2023/09/17 12:04:10;;;;;;;5.93;2.80;;;32.90;1.00;;;;;;5032793;28;20507;-40
2023/09/17 12:06:39;;;;;;;5.23;3.50;;;33.00;1.00;;;;;;5032261;28;20952;-39
2023/09/17 12:12:06;;;;;;;3.57;3.20;;;33.10;1.00;;;;;;5017561;28;20446;-39
2023/09/17 12:14:32;;;;;;;3.60;2.80;;;32.90;1.00;;;;;;5051072;28;20402;-41
2023/09/17 12:16:58;;;;;;;4.77;3.33;;;33.00;1.00;;;;;;5052554;28;20486;-40
2023/09/17 12:19:24;;;;;;;3.40;3.00;;;33.10;1.00;;;;;;5052414;28;20436;-38
2023/09/17 12:21:53;;;;;;;5.27;3.10;;;33.00;1.00;;;;;;5052608;28;20192;-39
2023/09/17 12:24:26;;;;;;;6.90;3.10;;;32.80;1.00;;;;;;5053163;28;20495;-40
2023/09/17 12:29:42;;;;;;;5.37;3.00;;;33.30;1.00;;;;;;5040030;28;20496;-41
2023/09/17 12:32:10;;;;;;;4.83;3.73;;;34.00;1.00;;;;;;5040589;28;20417;-41
2023/09/17 12:34:37;;;;;;;9.83;3.73;;;33.90;1.00;;;;;;5050171;28;20478;-40
2023/09/17 12:37:05;;;;;;;4.67;3.07;;;33.60;1.00;;;;;;5053019;28;21114;-40
2023/09/17 12:39:31;;;;;;;7.03;3.40;;;33.60;1.00;;;;;;5053484;28;20406;-39
2023/09/17 12:41:57;;;;;;;4.43;3.30;;;33.60;1.00;;;;;;5051656;28;20441;-40
2023/09/17 12:44:24;;;;;;;7.13;2.80;;;33.50;1.00;;;;;;5051955;28;20510;-39
2023/09/17 12:46:50;;;;;;;7.17;3.13;;;33.20;1.00;;;;;;5053630;28;20236;-39
2023/09/17 12:49:21;;;;;;;5.50;2.70;;;32.90;1.00;;;;;;5052141;28;20451;-43
2023/09/17 12:51:55;;;;;;;5.27;3.00;;;32.90;1.00;;;;;;5028154;28;20850;-39
2023/09/17 12:54:21;;;;;;;4.30;3.10;;;32.80;1.00;;;;;;5033481;28;20439;-40
2023/09/17 12:56:50;;;;;;;5.10;3.40;;;32.70;1.00;;;;;;5033815;28;20281;-40